createdAt,value
2022-08-26T00:02:08.955Z,97233.63
2022-08-26T00:12:12.415Z,97231.81
2022-08-26T00:22:14.129Z,97226.47
2022-08-26T00:32:22.994Z,97233.66
2022-08-26T00:42:24.487Z,97226.53
2022-08-26T00:52:28.256Z,97224.72
2022-08-26T01:02:29.850Z,97233.47
2022-08-26T01:12:35.496Z,97233.59
2022-08-26T01:23:01.571Z,97231.78
2022-08-26T01:33:10.080Z,97226.50
2022-08-26T01:43:19.962Z,97227.75
2022-08-26T01:53:24.204Z,97231.97
2022-08-26T02:03:27.559Z,97230.19
2022-08-26T02:13:32.822Z,97231.38
2022-08-26T02:23:37.173Z,97235.06
2022-08-26T02:33:43.125Z,97231.81
2022-08-26T02:43:44.807Z,97233.25
2022-08-26T02:53:46.329Z,97228.16
2022-08-26T03:03:47.786Z,97223.47
2022-08-26T03:13:51.621Z,97222.97
2022-08-26T03:23:53.309Z,97219.03
2022-08-26T03:33:59.121Z,97221.75
2022-08-26T03:44:01.950Z,97220.91
2022-08-26T03:54:06.813Z,97224.91
2022-08-26T04:04:09.923Z,97222.31
2022-08-26T04:14:20.905Z,97221.63
2022-08-26T04:24:24.440Z,97230.53
2022-08-26T04:34:28.791Z,97226.38
2022-08-26T04:44:30.862Z,97226.06
2022-08-26T04:54:32.530Z,97231.34
2022-08-26T05:04:34.581Z,97227.13
2022-08-26T05:14:37.045Z,97247.47
2022-08-26T05:24:38.797Z,97243.72
2022-08-26T05:34:41.072Z,97237.06
2022-08-26T05:44:53.744Z,97235.50
2022-08-26T05:54:57.503Z,97241.69
2022-08-26T06:04:59.202Z,97236.16
2022-08-26T06:15:00.692Z,97241.59
2022-08-26T06:25:29.321Z,97255.56
2022-08-26T06:35:30.815Z,97243.38
2022-08-26T06:45:32.800Z,97259.09
2022-08-26T06:55:40.407Z,97252.41
2022-08-26T07:05:41.999Z,97242.09
2022-08-26T07:15:43.603Z,97239.63
2022-08-26T07:25:45.414Z,97243.47
2022-08-26T07:35:47.606Z,97232.97
2022-08-26T07:45:50.134Z,97238.72
2022-08-26T07:55:52.009Z,97231.16
2022-08-26T08:05:53.649Z,97227.28
2022-08-26T08:15:55.472Z,97227.56
2022-08-26T08:26:07.328Z,97197.66
2022-08-26T08:36:09.849Z,97193.53
2022-08-26T08:46:20.451Z,97179.41
2022-08-26T08:56:28.241Z,97179.38
2022-08-26T09:06:31.480Z,97163.63
2022-08-26T09:16:55.386Z,97161.97
2022-08-26T09:26:58.965Z,97153.72
2022-08-26T09:37:00.812Z,97159.56
2022-08-26T09:47:08.697Z,97150.72
2022-08-26T09:57:27.078Z,97128.59
2022-08-26T10:07:39.265Z,97120.31
2022-08-26T10:17:47.446Z,97092.44
2022-08-26T10:28:00.411Z,97074.75
2022-08-26T10:38:08.905Z,97080.44
2022-08-26T10:48:21.234Z,97070.84
2022-08-26T10:58:57.334Z,97066.06
2022-08-26T11:09:02.269Z,97070.13
2022-08-26T11:19:04.702Z,97076.34
2022-08-26T11:29:12.892Z,97061.22
2022-08-26T11:39:21.390Z,97060.00
2022-08-26T11:49:24.885Z,97050.25
2022-08-26T11:59:38.614Z,97051.63
2022-08-26T12:09:57.646Z,97030.81
2022-08-26T12:19:59.073Z,97020.56
2022-08-26T12:30:08.307Z,97008.66
2022-08-26T12:40:28.818Z,96995.66
2022-08-26T12:50:33.731Z,96986.25
2022-08-26T13:00:38.878Z,96981.88
2022-08-26T13:10:44.318Z,96979.44
2022-08-26T13:20:45.972Z,96977.00
2022-08-26T13:30:49.829Z,96973.25
2022-08-26T13:40:51.519Z,96971.53
2022-08-26T13:50:53.841Z,96959.47
2022-08-26T14:00:57.297Z,96966.69
2022-08-26T14:11:00.668Z,96953.19
2022-08-26T14:21:04.435Z,96936.91
2022-08-26T14:31:06.816Z,96935.50
2022-08-26T14:41:09.242Z,96927.84
2022-08-26T14:51:10.773Z,96942.09
2022-08-26T15:01:13.057Z,96941.78
2022-08-26T15:11:14.614Z,96930.06
2022-08-26T15:21:16.210Z,96920.03
2022-08-26T15:31:18.426Z,96906.31
2022-08-26T15:41:20.095Z,96917.91
2022-08-26T15:51:32.290Z,96917.56
2022-08-26T16:01:36.377Z,96923.09
2022-08-26T16:11:42.904Z,96923.94
2022-08-26T16:21:51.100Z,96911.78
2022-08-26T16:31:54.648Z,96910.66
2022-08-26T16:41:56.440Z,96917.59
2022-08-26T16:51:58.077Z,96942.50
2022-08-26T17:02:00.506Z,96962.28
2022-08-26T17:12:02.226Z,96980.78
2022-08-26T17:22:06.093Z,96983.78
2022-08-26T17:32:07.868Z,96996.50
2022-08-26T17:42:11.788Z,96998.41
2022-08-26T17:52:14.276Z,97007.78
2022-08-26T18:02:16.369Z,97035.16
2022-08-26T18:12:18.013Z,97034.56
2022-08-26T18:22:19.648Z,97045.16
2022-08-26T18:32:21.275Z,97061.50
2022-08-26T18:42:23.985Z,97049.97
2022-08-26T18:52:25.489Z,97029.69
2022-08-26T19:02:27.145Z,97016.63
2022-08-26T19:12:32.116Z,97021.28
2022-08-26T19:22:34.275Z,97050.19
2022-08-26T19:32:35.985Z,97082.47
2022-08-26T19:42:37.506Z,97114.84
2022-08-26T19:52:41.321Z,97137.22
2022-08-26T20:02:44.263Z,97149.56
2022-08-26T20:12:47.384Z,97137.22
2022-08-26T20:22:49.037Z,97148.75
2022-08-26T20:32:50.529Z,97151.72
2022-08-26T20:42:52.055Z,97140.75
2022-08-26T20:52:53.794Z,97133.78
2022-08-26T21:02:56.536Z,97122.78
2022-08-26T21:12:58.004Z,97149.19
2022-08-26T21:22:59.525Z,97158.88
2022-08-26T21:33:01.575Z,97177.91
2022-08-26T21:43:03.080Z,97181.03
2022-08-26T21:53:04.540Z,97212.59
2022-08-26T22:03:06.126Z,97207.56
2022-08-26T22:13:10.935Z,97184.63
2022-08-26T22:23:12.503Z,97164.91
2022-08-26T22:33:16.217Z,97161.00
2022-08-26T22:43:18.961Z,97164.03
2022-08-26T22:53:20.467Z,97145.56
2022-08-26T23:03:22.337Z,97134.38
2022-08-26T23:13:24.279Z,97134.63
2022-08-26T23:23:27.381Z,97132.25
2022-08-26T23:33:49.072Z,97114.13
2022-08-26T23:43:51.794Z,97110.66
2022-08-26T23:53:53.270Z,97128.75
